Thomas Murray

Chefscout - West Ham United
2 Sep 2027
Donnerstag
Verarbeitung

Persönlichkeit

Anpassungsfähigkeit (4) Ehrgeiz (13) Kontroverse (16) Loyalität (6) Druck (12) Professionalität (14) Fairness (2) Temperament (9)

Profil

Trainerstil Demokratisch
Lizenz Kontinentale Pro
Entschlossenheit 14
Menschenführung 8
Motivation 9
Disziplin 7
Arbeitszufriedenheit
92%
Ermüdung
0%
Rolle Chefscout
Gehalt 111.6K p/W
Vertrag 14.03.2030

Leistung

Verhalten Gut
Trainingseffektivität
50%
Spielerentwicklung
70%
Verletzungsprävention
40%
Taktische Umsetzung
45%

Letzte Ereignisse

Spieler begutachtet jetzt
Nahm an einer Scouting-Besprechung teil jetzt
Nahm an einer Scouting-Besprechung teil jetzt
Empfahl ein Transferziel jetzt
Empfahl ein Transferziel jetzt
Empfahl ein Transferziel 7T her
Empfahl ein Transferziel 7T her
Empfahl ein Transferziel 7T her

Aktuell beobachtet

168
Spieler Verein Status Fähigkeit Vertrauen Beobachtet Zuletzt beobachtet Letzte Stimme
Jorrel Hato Chelsea Aktiv 158 / 154 40% 3 30.08.2027 -
Harrison Armstrong Everton Aktiv 126 / 134 40% 1 30.08.2027 -
Jamie Cumming Oxford United Aktiv 127 / 134 72% 1 16.08.2027 Befürworten
Leonardo Mendicino Bari Aktiv 113 / 129 40% 1 05.08.2027 -
Dayann Methalie Aston Villa Aktiv 137 / 148 40% 1 05.08.2027 -
Davide Bartesaghi AC Milan Aktiv 135 / 134 40% 2 04.08.2027 -
Lewis Miley Chelsea Aktiv 150 / 159 40% 3 04.08.2027 -
Christ Inao Oulaï Fiorentina Aktiv 133 / 141 40% 1 01.08.2027 -
Sascha Britschgi Padova Aktiv 128 / 129 40% 1 01.08.2027 -
Freddy Murillo Valencia Aktiv 118 / 125 40% 1 01.08.2027 -
Caleb Yirenkyi Coventry City Aktiv 136 / 153 40% 3 31.07.2027 -
Johan Manzambi Newcastle United Aktiv 141 / 149 40% 2 31.07.2027 -
Julián Bazán Philadelphia Union Aktiv 115 / 122 40% 1 31.07.2027 -
Christos Mouzakitis Hull City Aktiv 130 / 149 40% 2 29.07.2027 -
Martim Cunha Porto Aktiv 112 / 113 40% 2 29.07.2027 -
Riley Owen Trento Aktiv 105 / 119 40% 3 29.07.2027 -
Ernie Weaver AFC Wimbledon Aktiv 118 / 120 40% 2 28.07.2027 -
Matías Gómez Granada Aktiv 110 / 130 40% 2 28.07.2027 -
Jofre Torrents Ajax Aktiv 126 / 128 40% 2 26.07.2027 -
Juan Giménez Celta Aktiv 119 / 125 40% 1 26.07.2027 -
Rodrigo Gomes Wolverhampton Aktiv 139 / 152 40% 12 22.07.2027 -
Juanlu Bournemouth Aktiv 157 / 151 40% 6 22.07.2027 -
Yehor Yarmoliuk Brentford Aktiv 159 / 161 40% 9 22.07.2027 -
Xavi Simons Tottenham Aktiv 166 / 149 40% 9 05.07.2027 -
Yankuba Minteh Brighton Aktiv 145 / 145 40% 8 05.07.2027 -
Jesús Rodríguez Como Aktiv 146 / 152 40% 2 21.06.2027 -
Yeremy Pino Crystal Palace Aktiv 150 / 144 40% 8 02.06.2027 -
Toby Collyer West Bromwich Albion Aktiv 124 / 141 40% 2 02.06.2027 -
Scott Twine Bristol City Aktiv 125 / 131 69% 1 02.06.2027 Befürworten
Callum Hudson-Odoi Nottingham Forest Aktiv 158 / 142 40% 3 31.05.2027 -
Léo Scienza Southampton Aktiv 146 / 141 40% 4 31.05.2027 -
Kenan Yıldız Juventus Aktiv 165 / 168 40% 4 31.05.2027 -
Shea Charles Southampton Aktiv 137 / 140 40% 6 29.05.2027 -
Malick Fofana Sunderland Aktiv 150 / 137 40% 5 29.05.2027 -
Ilyas Ansah Hull City Aktiv 135 / 134 40% 7 28.05.2027 -
Jacques Ekomié Wrexham Aktiv 121 / 125 40% 3 27.05.2027 -
Adam Wharton Crystal Palace Aktiv 160 / 144 40% 4 27.05.2027 -
Mohamed-Ali Cho Hull City Aktiv 136 / 129 40% 6 26.05.2027 -
Assane Diao Lazio Aktiv 152 / 154 40% 5 26.05.2027 -
Othmane Maamma Watford Aktiv 120 / 121 40% 3 25.05.2027 -
Tom Fellows Southampton Aktiv 139 / 134 40% 5 25.05.2027 -
Tommy Conway Middlesbrough Aktiv 131 / 122 40% 6 24.05.2027 -
Maximo Ingravidi Colón Aktiv 108 / 108 40% 1 24.05.2027 -
Markus Jensen Nacional Aktiv 103 / 119 40% 1 24.05.2027 -
Borna Knezović Casarano Aktiv 100 / 104 40% 1 24.05.2027 -
Gonçalo Oliveira Benfica Aktiv 109 / 110 40% 2 22.05.2027 -
Matías Soulé AS Roma Aktiv 158 / 163 40% 10 20.05.2027 -
Carlos Alcaraz Everton Aktiv 142 / 143 40% 4 19.05.2027 -
Amad Manchester United Aktiv 152 / 158 40% 6 18.05.2027 -
Francisco Conceição Juventus Aktiv 152 / 161 40% 5 16.05.2027 -
Nicolas Verkooijen PSV Aktiv 113 / 121 40% 2 15.05.2027 -
Francesco Pio Esposito Inter Aktiv 146 / 146 40% 1 15.05.2027 -
Stefanos Tzimas Brighton Aktiv 140 / 136 40% 1 15.05.2027 -
Jack McGlynn Stoke City Aktiv 125 / 131 40% 3 11.05.2027 -
Antoni Milambo Brentford Aktiv 136 / 152 40% 1 11.05.2027 -
Yannik Wagner Heidenheim Aktiv 105 / 103 40% 2 10.05.2027 -
Ognjen Bondžulić Mladost Lucani Aktiv 97 / 106 40% 1 10.05.2027 -
Tomáš Rigo Stoke City Aktiv 136 / 127 40% 3 07.05.2027 -
Valentin Atangana Al-Ahli Aktiv 138 / 141 40% 3 05.05.2027 -
Isaac Price West Bromwich Albion Aktiv 120 / 132 40% 2 03.05.2027 -
Kevin Fulham Aktiv 149 / 156 40% 4 02.05.2027 -
Morgan Rogers Chelsea Aktiv 162 / 158 40% 15 01.05.2027 -
Darryl Bakola Padova Aktiv 103 / 109 40% 3 27.04.2027 -
Hugo Ekitiké Liverpool Aktiv 161 / 165 40% 2 23.04.2027 -
Miloš Kerkez Liverpool Aktiv 153 / 159 40% 5 22.04.2027 -
Andre Brooks Sheffield United Aktiv 120 / 122 40% 2 21.04.2027 -
Tiago Freitas Benfica Aktiv 103 / 111 40% 2 21.04.2027 -
David Ozoh Derby County Aktiv 118 / 120 40% 1 21.04.2027 -
Aaron Hickey Brentford Aktiv 149 / 149 40% 1 20.04.2027 -
Agustín Ruberto River Plate Aktiv 124 / 119 40% 1 20.04.2027 -
Thomas Waddingham Portsmouth Aktiv 108 / 115 40% 1 20.04.2027 -
Dylan Lawlor Cardiff City Aktiv 108 / 123 40% 1 14.04.2027 -
Joe Gelhardt Hull City Aktiv 129 / 136 40% 2 13.04.2027 -
Mohamed Belloumi Hull City Aktiv 137 / 134 40% 7 11.04.2027 -
Gonzalo Fulham Aktiv 150 / 154 40% 6 09.04.2027 -
Josh King Chelsea Aktiv 142 / 142 40% 2 08.04.2027 -
James Dornelly Peterborough United Aktiv 95 / 98 40% 1 06.04.2027 -
Kwadwo Baah Watford Aktiv 137 / 123 40% 1 04.04.2027 -
Jack Hinshelwood Brighton Aktiv 149 / 138 40% 2 02.04.2027 -
Keagan Phiri Platinum Stars Aktiv 105 / 95 40% 1 02.04.2027 -
Ryan Gravenberch Liverpool Aktiv 166 / 154 40% 3 31.03.2027 -
Leo Castledine Middlesbrough Aktiv 130 / 123 40% 2 24.03.2027 -
Bradley Barcola Liverpool Aktiv 159 / 165 40% 11 22.03.2027 -
Kristoffer Lund Birmingham Aktiv 120 / 128 40% 1 20.03.2027 -
Hlompho Lorch Ajax Cape Town Aktiv 100 / 110 40% 2 18.03.2027 -
Matvey Kislyak CSKA Moscow Aktiv 127 / 145 40% 1 18.03.2027 -
Tino Livramento Newcastle United Aktiv 156 / 159 40% 3 15.03.2027 -
Abdul Fatawu Leicester City Aktiv 131 / 129 40% 1 15.03.2027 -
Hélio Varela Maccabi Tel Aviv Aktiv 131 / 127 40% 2 13.03.2027 -
Noah Sadiki Sunderland Aktiv 137 / 140 40% 1 13.03.2027 -
Cemran Dansin Orlando Pirates Aktiv 113 / 120 40% 2 12.03.2027 -
Ibrahim Maza Bayer Leverkusen Aktiv 144 / 158 40% 1 11.03.2027 -
Curtis Jones Inter Aktiv 161 / 160 40% 1 03.01.2027 -
Jan Paul van Hecke Tottenham Aktiv 156 / 166 40% 1 03.01.2027 -
Quinten Timber Crystal Palace Aktiv 155 / 156 40% 1 03.01.2027 -
Luiz Henrique West Ham United Verhandlung 142 / 143 68% 1 01.01.2027 Befürworten
Marcel Ruiz RC Lens Aktiv 140 / 141 68% 1 01.01.2027 Befürworten
Borja Sainz Fiorentina Aktiv 144 / 145 66% 1 01.01.2027 Befürworten
Dmytro Riznyk Cruz Azul Verhandlung 137 / 137 66% 1 01.01.2027 Befürworten
Mason Mount Manchester United Aktiv 154 / 149 40% 4 31.12.2026 -
Brais Méndez Columbus Crew Aktiv 152 / 152 40% 6 30.12.2026 -
Nicolas Jackson Aston Villa Aktiv 146 / 153 40% 4 30.12.2026 -
Kiernan Dewsbury-Hall Everton Aktiv 159 / 137 40% 4 29.12.2026 -
Carlos Vicente Birmingham Aktiv 138 / 135 40% 9 28.12.2026 Beobachten
Josep Martínez Inter Aktiv 143 / 147 40% 3 28.12.2026 -
David Raya Arsenal Aktiv 154 / 161 40% 3 28.12.2026 -
Adrien Truffert Bournemouth Aktiv 155 / 155 40% 3 27.12.2026 -
Hany Mukhtar Spezia Aktiv 141 / 129 40% 5 27.12.2026 -
Cody Gakpo Liverpool Aktiv 154 / 165 40% 11 26.12.2026 -
Gabriel Martinelli Brighton Aktiv 166 / 160 40% 11 26.12.2026 -
Matt O'Riley Brighton Aktiv 148 / 136 40% 4 26.12.2026 -
Harry Wilson Leeds United Aktiv 148 / 137 40% 3 26.12.2026 -
Kai Havertz Arsenal Aktiv 167 / 161 40% 8 23.12.2026 -
Steven Bergwijn Al-Ittihad Aktiv 146 / 139 40% 4 22.12.2026 -
Jérémy Doku Manchester City Aktiv 175 / 157 40% 6 22.12.2026 -
Martin Ødegaard Arsenal Aktiv 186 / 183 40% 7 21.12.2026 -
Iliman N'Diaye Everton Aktiv 157 / 146 40% 8 20.12.2026 -
Sandro Tonali Tottenham Aktiv 180 / 174 40% 4 17.12.2026 -
Justin Bijlow Genoa Aktiv 148 / 145 40% 1 17.12.2026 -
Senne Lammens Manchester United Aktiv 142 / 146 40% 4 15.12.2026 -
Arijanet Murić Sassuolo Aktiv 136 / 145 40% 2 15.12.2026 -
Nico González Newcastle United Aktiv 162 / 170 40% 6 13.12.2026 -
Federico Chiesa Liverpool Aktiv 149 / 147 40% 2 13.12.2026 -
Giacomo Raspadori Atalanta Aktiv 150 / 142 40% 2 13.12.2026 -
Alexis Mac Allister Liverpool Aktiv 155 / 160 40% 3 10.12.2026 -
Bryan Mbeumo Manchester United Aktiv 165 / 163 40% 3 10.12.2026 -
Dušan Vlahović Juventus Aktiv 167 / 160 40% 1 10.12.2026 -
Martín Zubimendi Arsenal Aktiv 161 / 155 40% 1 04.12.2026 -
Gabriel Jesus Barcelona Aktiv 155 / 154 40% 5 01.12.2026 -
Marcus Rashford Manchester United Aktiv 166 / 149 40% 1 01.12.2026 -
Robin Roefs Sunderland Aktiv 144 / 150 40% 4 30.11.2026 -
Dean Henderson Crystal Palace Aktiv 150 / 155 40% 3 30.11.2026 -
Anatolii Trubin Juventus Aktiv 153 / 150 40% 1 30.11.2026 -
Mohammed Kudus Tottenham Aktiv 153 / 153 40% 4 28.11.2026 -
Thiago Brentford Aktiv 140 / 153 40% 1 28.11.2026 -
Declan Rice Arsenal Aktiv 181 / 187 40% 4 25.11.2026 -
Alexey Miranchuk St. Gallen Aktiv 138 / 146 40% 3 24.11.2026 -
Antoine Semenyo Manchester City Aktiv 159 / 157 40% 2 15.11.2026 -
Óscar Mingueza Crystal Palace Aktiv 156 / 152 40% 1 11.11.2026 -
Matheus Cunha Manchester United Aktiv 154 / 147 40% 3 09.11.2026 -
Razvan Balasa Crvena Zvezda Aktiv 150 / 152 40% 2 09.11.2026 -
Victor Osimhen Manchester United Aktiv 152 / 165 40% 3 07.11.2026 -
Leroy Sané Galatasaray Aktiv 155 / 161 40% 2 07.11.2026 -
Vinícius Júnior Arsenal Aktiv 171 / 167 40% 2 06.11.2026 -
Phil Foden Manchester City Aktiv 182 / 176 40% 3 02.11.2026 -
Breel Embolo Atlanta United FC Aktiv 129 / 135 40% 4 01.11.2026 -
Dominic Solanke Tottenham Aktiv 143 / 146 40% 2 31.10.2026 -
Jadon Sancho Manchester United Aktiv 142 / 142 40% 1 31.10.2026 -
Georginio Rutter Brighton Aktiv 140 / 155 40% 1 29.10.2026 -
Cole Palmer Chelsea Aktiv 181 / 172 40% 2 27.10.2026 -
Luis Suárez Chelsea Aktiv 145 / 148 40% 3 23.10.2026 -
Predrag Rajković Racing Genk Aktiv 141 / 141 40% 1 22.10.2026 -
Amine Adli Bournemouth Aktiv 143 / 150 40% 1 19.10.2026 -
Reece James Chelsea Aktiv 175 / 174 40% 4 16.10.2026 -
Ángel Correa River Plate Aktiv 141 / 129 40% 3 15.10.2026 -
Ebere Eze Arsenal Aktiv 149 / 161 40% 1 12.10.2026 -
Alexander Isak Liverpool Aktiv 166 / 167 40% 5 10.10.2026 -
James Trafford Leeds United Aktiv 146 / 145 40% 1 08.10.2026 -
Jean-Philippe Mateta Crystal Palace Aktiv 145 / 149 40% 2 03.10.2026 -
Barış Alper Yılmaz Galatasaray Aktiv 137 / 139 40% 1 03.10.2026 -
James Maddison Tottenham Aktiv 160 / 159 40% 1 03.10.2026 -
Mauro Arambarri River Plate Aktiv 155 / 167 40% 1 02.10.2026 -
Oussama Idrissi Pachuca Aktiv 143 / 145 40% 1 02.10.2026 -
Orbelín Pineda Monterrey Aktiv 139 / 138 40% 1 29.09.2026 -
Allan Saint-Maximin Charlotte Football Club Aktiv 130 / 144 40% 2 21.09.2026 -
Sergio Reguilón Inter Miami CF Aktiv 143 / 124 40% 1 17.09.2026 -
Bruno Guimarães Arsenal Aktiv 174 / 160 40% 3 16.09.2026 -
João Pedro Chelsea Aktiv 142 / 144 40% 1 09.09.2026 -